createdAt,value
2023-04-22T00:00:09.027Z,99103.13
2023-04-22T00:02:37.300Z,99101.59
2023-04-22T00:05:06.831Z,99097.44
2023-04-22T00:07:34.161Z,99094.88
2023-04-22T00:10:01.115Z,99093.63
2023-04-22T00:12:28.047Z,99094.00
2023-04-22T00:14:55.029Z,99097.84
2023-04-22T00:17:22.019Z,99094.47
2023-04-22T00:19:48.955Z,99089.47
2023-04-22T00:22:15.915Z,99095.44
2023-04-22T00:24:42.951Z,99099.16
2023-04-22T00:27:09.987Z,99100.78
2023-04-22T00:29:37.339Z,99091.13
2023-04-22T00:32:04.629Z,99099.16
2023-04-22T00:34:31.562Z,99088.44
2023-04-22T00:36:58.579Z,99096.47
2023-04-22T00:39:25.703Z,99095.44
2023-04-22T00:41:53.285Z,99095.44
2023-04-22T00:44:20.582Z,99088.44
2023-04-22T00:46:48.810Z,99086.56
2023-04-22T00:49:16.805Z,99091.13
2023-04-22T00:51:43.849Z,99093.81
2023-04-22T00:54:10.774Z,99085.97
2023-04-22T00:56:39.476Z,99090.50
2023-04-22T00:59:07.168Z,99095.06
2023-04-22T01:01:34.718Z,99095.28
2023-04-22T01:04:03.990Z,99085.63
2023-04-22T01:06:32.393Z,99093.06
2023-04-22T01:08:59.526Z,99095.16
2023-04-22T01:11:26.728Z,99092.94
2023-04-22T01:13:53.869Z,99085.97
2023-04-22T01:16:22.020Z,99083.50
2023-04-22T01:18:49.151Z,99095.50
2023-04-22T01:21:16.961Z,99091.16
2023-04-22T01:23:43.995Z,99090.53
2023-04-22T01:26:11.249Z,99089.97
2023-04-22T01:28:38.592Z,99092.66
2023-04-22T01:31:05.736Z,99093.69
2023-04-22T01:33:33.384Z,99090.44
2023-04-22T01:36:00.702Z,99099.53
2023-04-22T01:38:28.799Z,99090.88
2023-04-22T01:40:55.890Z,99097.53
2023-04-22T01:43:23.273Z,99097.53
2023-04-22T01:45:50.289Z,99096.13
2023-04-22T01:48:17.426Z,99097.97
2023-04-22T01:50:44.781Z,99097.16
2023-04-22T01:53:14.060Z,99097.16
2023-04-22T01:55:43.045Z,99101.50
2023-04-22T01:58:13.238Z,99100.44
2023-04-22T02:00:41.268Z,99096.13
2023-04-22T02:03:08.369Z,99095.91
2023-04-22T02:05:36.397Z,99107.44
2023-04-22T02:08:03.581Z,99103.72
2023-04-22T02:10:31.038Z,99110.13
2023-04-22T02:12:59.127Z,99110.13
2023-04-22T02:15:26.242Z,99107.44
2023-04-22T02:17:54.759Z,99107.44
2023-04-22T02:20:21.876Z,99107.44
2023-04-22T02:22:50.597Z,99101.25
2023-04-22T02:25:19.838Z,99096.94
2023-04-22T02:27:46.788Z,99097.75
2023-04-22T02:30:16.158Z,99107.44
2023-04-22T02:32:43.186Z,99102.88
2023-04-22T02:35:11.632Z,99095.66
2023-04-22T02:37:38.959Z,99091.34
2023-04-22T02:40:07.545Z,99099.41
2023-04-22T02:42:35.151Z,99100.44
2023-04-22T02:45:02.715Z,99106.84
2023-04-22T02:47:29.945Z,99107.88
2023-04-22T02:49:56.953Z,99106.25
2023-04-22T02:52:23.895Z,99105.66
2023-04-22T02:54:50.844Z,99109.97
2023-04-22T02:57:17.783Z,99108.34
2023-04-22T02:59:44.778Z,99096.81
2023-04-22T03:02:14.077Z,99101.34
2023-04-22T03:05:04.797Z,99100.75
2023-04-22T03:07:31.815Z,99103.41
2023-04-22T03:09:59.545Z,99112.50
2023-04-22T03:12:26.743Z,99115.19
2023-04-22T03:14:53.707Z,99118.09
2023-04-22T03:17:22.746Z,99116.47
2023-04-22T03:19:50.390Z,99111.34
2023-04-22T03:22:17.460Z,99110.53
2023-04-22T03:24:44.788Z,99114.59
2023-04-22T03:27:11.889Z,99117.88
2023-04-22T03:29:39.964Z,99115.81
2023-04-22T03:32:07.225Z,99111.03
2023-04-22T03:34:37.218Z,99103.56
2023-04-22T03:37:05.460Z,99094.72
2023-04-22T03:39:32.634Z,99099.63
2023-04-22T03:41:59.719Z,99099.63
2023-04-22T03:44:26.806Z,99099.63
2023-04-22T03:46:55.460Z,99102.31
2023-04-22T03:49:27.271Z,99100.06
2023-04-22T03:51:55.843Z,99101.94
2023-04-22T03:54:27.478Z,99103.78
2023-04-22T03:56:55.735Z,99092.25
2023-04-22T03:59:23.757Z,99097.03
2023-04-22T04:01:52.770Z,99089.22
2023-04-22T04:04:23.799Z,99095.63
2023-04-22T04:06:56.466Z,99087.00
2023-04-22T04:09:23.454Z,99091.78
2023-04-22T04:11:50.442Z,99086.63
2023-04-22T04:14:18.100Z,99086.03
2023-04-22T04:16:50.309Z,99093.50
2023-04-22T04:19:25.945Z,99096.63
2023-04-22T04:21:52.923Z,99091.50
2023-04-22T04:24:20.943Z,99096.25
2023-04-22T04:26:51.132Z,99087.19
2023-04-22T04:29:23.661Z,99093.34
2023-04-22T04:32:04.702Z,99091.72
2023-04-22T04:34:32.281Z,99079.38
2023-04-22T04:36:59.521Z,99085.53
2023-04-22T04:39:34.447Z,99076.47
2023-04-22T04:42:03.859Z,99066.78
2023-04-22T04:44:34.173Z,99072.97
2023-04-22T04:47:04.148Z,99078.75
2023-04-22T04:49:31.890Z,99076.91
2023-04-22T04:52:01.772Z,99071.34
2023-04-22T04:54:29.101Z,99072.16
2023-04-22T04:56:57.477Z,99084.50
2023-04-22T04:59:25.156Z,99084.50
2023-04-22T05:01:52.749Z,99093.34
2023-04-22T05:04:20.283Z,99090.44
2023-04-22T05:06:48.151Z,99085.91
2023-04-22T05:09:15.120Z,99077.84
2023-04-22T05:11:43.787Z,99077.66
2023-04-22T05:14:15.969Z,99078.47
2023-04-22T05:16:46.038Z,99092.44
2023-04-22T05:19:14.091Z,99096.75
2023-04-22T05:21:42.178Z,99093.63
2023-04-22T05:24:09.131Z,99097.72
2023-04-22T05:26:36.524Z,99101.22
2023-04-22T05:29:09.708Z,99107.16
2023-04-22T05:31:36.686Z,99115.81
2023-04-22T05:34:03.664Z,99113.69
2023-04-22T05:36:32.007Z,99112.41
2023-04-22T05:38:59.827Z,99110.34
2023-04-22T05:41:27.379Z,99124.56
2023-04-22T05:43:56.621Z,99116.28
2023-04-22T05:46:24.400Z,99124.09
2023-04-22T05:48:51.732Z,99117.69
2023-04-22T05:51:37.119Z,99110.25
2023-04-22T05:54:04.551Z,99110.25
2023-04-22T05:56:31.745Z,99104.66
2023-04-22T05:58:58.712Z,99118.06
2023-04-22T06:01:26.513Z,99111.88
2023-04-22T06:03:58.963Z,99110.84
2023-04-22T06:06:27.369Z,99121.31
2023-04-22T06:08:54.375Z,99115.97
2023-04-22T06:11:22.338Z,99125.63
2023-04-22T06:13:49.338Z,99138.81
2023-04-22T06:16:16.930Z,99147.69
2023-04-22T06:18:43.926Z,99154.47
2023-04-22T06:21:12.509Z,99159.16
2023-04-22T06:23:40.440Z,99156.59
2023-04-22T06:26:07.407Z,99154.88
2023-04-22T06:28:35.972Z,99159.31
2023-04-22T06:31:07.892Z,99155.50
2023-04-22T06:33:35.775Z,99150.03
2023-04-22T06:36:04.758Z,99137.94
2023-04-22T06:38:31.703Z,99142.13
2023-04-22T06:41:19.009Z,99147.97
2023-04-22T06:43:49.752Z,99150.53
2023-04-22T06:46:17.679Z,99139.13
2023-04-22T06:49:03.411Z,99144.81
2023-04-22T06:51:30.958Z,99135.50
2023-04-22T06:53:58.498Z,99129.66
2023-04-22T06:56:25.935Z,99143.88
2023-04-22T06:58:52.927Z,99139.34
2023-04-22T07:01:20.043Z,99142.63
2023-04-22T07:03:47.540Z,99145.66
2023-04-22T07:06:15.355Z,99139.59
2023-04-22T07:08:42.456Z,99147.75
2023-04-22T07:11:12.457Z,99145.16
2023-04-22T07:13:46.720Z,99146.34
2023-04-22T07:16:13.738Z,99142.59
2023-04-22T07:18:40.736Z,99143.41
2023-04-22T07:21:07.673Z,99142.34
2023-04-22T07:23:34.620Z,99144.59
2023-04-22T07:26:01.773Z,99145.97
2023-04-22T07:28:28.721Z,99142.84
2023-04-22T07:30:55.681Z,99139.41
2023-04-22T07:33:22.761Z,99133.94
2023-04-22T07:35:49.986Z,99128.44
2023-04-22T07:38:17.493Z,99139.66
2023-04-22T07:40:44.485Z,99139.28
2023-04-22T07:43:11.412Z,99141.59
2023-04-22T07:45:38.453Z,99134.75
2023-04-22T07:48:05.531Z,99133.34
2023-04-22T07:50:32.555Z,99149.19
2023-04-22T07:52:59.536Z,99146.91
2023-04-22T07:55:26.500Z,99143.84
2023-04-22T07:57:53.450Z,99149.88
2023-04-22T08:00:20.362Z,99145.97
2023-04-22T08:02:47.545Z,99150.97
2023-04-22T08:05:14.657Z,99146.50
2023-04-22T08:07:41.924Z,99142.84
2023-04-22T08:10:09.620Z,99151.25
2023-04-22T08:12:37.574Z,99155.09
2023-04-22T08:15:05.120Z,99145.47
2023-04-22T08:17:32.352Z,99152.56
2023-04-22T08:19:59.308Z,99143.50
2023-04-22T08:22:27.446Z,99140.66
2023-04-22T08:24:54.459Z,99147.22
2023-04-22T08:27:22.111Z,99145.19
2023-04-22T08:29:49.181Z,99147.72
2023-04-22T08:32:16.553Z,99139.22
2023-04-22T08:34:44.056Z,99138.78
2023-04-22T08:37:11.281Z,99141.06
2023-04-22T08:39:38.651Z,99147.88
2023-04-22T08:42:05.926Z,99145.59
2023-04-22T08:44:34.922Z,99140.31
2023-04-22T08:47:03.199Z,99145.63
2023-04-22T08:49:31.075Z,99137.88
2023-04-22T08:51:58.031Z,99130.72
2023-04-22T08:54:24.995Z,99130.56
2023-04-22T08:56:52.332Z,99136.59
2023-04-22T08:59:22.301Z,99136.13
2023-04-22T09:01:56.116Z,99129.75
2023-04-22T09:04:23.402Z,99128.50
2023-04-22T09:06:50.337Z,99128.34
2023-04-22T09:09:17.344Z,99128.75
2023-04-22T09:11:44.380Z,99122.38
2023-04-22T09:14:11.344Z,99118.41
2023-04-22T09:16:44.760Z,99121.44
2023-04-22T09:19:13.133Z,99121.75
2023-04-22T09:21:41.405Z,99114.22
2023-04-22T09:24:12.377Z,99109.91
2023-04-22T09:26:41.958Z,99111.84
2023-04-22T09:29:14.650Z,99110.78
2023-04-22T09:31:41.805Z,99103.50
2023-04-22T09:34:12.184Z,99104.91
2023-04-22T09:36:39.376Z,99103.00
2023-04-22T09:39:08.194Z,99095.25
2023-04-22T09:41:40.017Z,99108.00
2023-04-22T09:44:20.520Z,99105.31
2023-04-22T09:46:51.047Z,99100.47
2023-04-22T09:49:18.083Z,99104.25
2023-04-22T09:51:45.045Z,99097.50
2023-04-22T09:54:12.182Z,99094.56
2023-04-22T09:56:48.157Z,99088.84
2023-04-22T09:59:29.490Z,99094.84
2023-04-22T10:02:00.728Z,99088.63
2023-04-22T10:04:28.380Z,99087.28
2023-04-22T10:06:56.164Z,99097.31
2023-04-22T10:09:24.975Z,99095.41
2023-04-22T10:11:55.575Z,99084.84
2023-04-22T10:14:22.710Z,99084.03
2023-04-22T10:16:56.604Z,99080.47
2023-04-22T10:19:26.011Z,99083.72
2023-04-22T10:21:57.657Z,99091.84
2023-04-22T10:24:34.185Z,99097.78
2023-04-22T10:27:10.573Z,99088.50
2023-04-22T10:29:40.834Z,99084.97
2023-04-22T10:32:11.590Z,99081.41
2023-04-22T10:34:39.664Z,99076.78
2023-04-22T10:37:11.487Z,99081.38
2023-04-22T10:39:42.826Z,99071.56
2023-04-22T10:42:13.172Z,99080.28
2023-04-22T10:44:53.659Z,99085.94
2023-04-22T10:47:37.901Z,99080.22
2023-04-22T10:50:24.000Z,99081.50
2023-04-22T10:53:19.912Z,99071.94
2023-04-22T10:55:54.057Z,99070.78
2023-04-22T10:58:23.894Z,99077.22
2023-04-22T11:00:59.623Z,99067.03
2023-04-22T11:03:30.716Z,99061.16
2023-04-22T11:06:18.619Z,99067.47
2023-04-22T11:08:47.443Z,99053.91
2023-04-22T11:11:16.514Z,99063.16
2023-04-22T11:13:44.022Z,99067.28
2023-04-22T11:16:11.329Z,99073.31
2023-04-22T11:18:38.701Z,99067.88
2023-04-22T11:21:08.386Z,99058.34
2023-04-22T11:23:36.638Z,99067.91
2023-04-22T11:26:06.933Z,99068.84
2023-04-22T11:28:33.831Z,99062.94
2023-04-22T11:31:07.576Z,99066.66
2023-04-22T11:33:35.002Z,99068.94
2023-04-22T11:36:02.305Z,99067.44
2023-04-22T11:38:29.262Z,99067.06
2023-04-22T11:40:59.704Z,99061.91
2023-04-22T11:43:26.818Z,99049.38
2023-04-22T11:45:56.063Z,99056.84
2023-04-22T11:48:23.720Z,99049.53
2023-04-22T11:51:13.753Z,99051.34
2023-04-22T11:53:51.249Z,99057.63
2023-04-22T11:56:18.176Z,99052.66
2023-04-22T11:58:45.159Z,99045.63
2023-04-22T12:01:13.930Z,99048.16
2023-04-22T12:03:41.090Z,99050.16
2023-04-22T12:06:08.237Z,99048.63
2023-04-22T12:08:42.329Z,99048.84
2023-04-22T12:11:11.604Z,99048.44
2023-04-22T12:13:38.386Z,99058.44
2023-04-22T12:16:14.652Z,99054.88
2023-04-22T12:18:49.476Z,99052.84
2023-04-22T12:21:24.586Z,99059.84
2023-04-22T12:23:58.833Z,99058.38
2023-04-22T12:26:27.822Z,99062.28
2023-04-22T12:29:00.411Z,99063.09
2023-04-22T12:31:28.167Z,99059.34
2023-04-22T12:33:56.321Z,99065.47
2023-04-22T12:36:24.068Z,99060.84
2023-04-22T12:38:51.287Z,99067.75
2023-04-22T12:41:18.386Z,99071.31
2023-04-22T12:43:45.300Z,99075.88
2023-04-22T12:46:12.313Z,99078.22
2023-04-22T12:48:39.347Z,99070.47
2023-04-22T12:51:06.992Z,99075.81
2023-04-22T12:53:34.702Z,99077.28
2023-04-22T12:56:01.760Z,99079.19
2023-04-22T12:58:28.891Z,99071.16
2023-04-22T13:00:55.993Z,99071.22
2023-04-22T13:03:23.163Z,99064.53
2023-04-22T13:05:50.827Z,99074.94
2023-04-22T13:08:17.884Z,99067.63
2023-04-22T13:10:44.812Z,99066.38
2023-04-22T13:15:41.620Z,99065.63
2023-04-22T13:18:08.703Z,99069.50
2023-04-22T13:20:36.035Z,99081.00
2023-04-22T13:23:04.565Z,99071.06
2023-04-22T13:25:31.729Z,99065.16
2023-04-22T13:27:58.704Z,99067.09
2023-04-22T13:30:25.764Z,99064.41
2023-04-22T13:32:52.977Z,99072.59
2023-04-22T13:35:20.040Z,99058.03
2023-04-22T13:37:47.111Z,99062.16
2023-04-22T13:40:14.278Z,99056.47
2023-04-22T13:42:41.822Z,99054.38
2023-04-22T13:45:09.520Z,99068.25
2023-04-22T13:47:36.582Z,99055.50
2023-04-22T13:50:05.518Z,99061.81
2023-04-22T13:52:32.822Z,99057.75
2023-04-22T13:55:03.207Z,99055.59
2023-04-22T13:57:30.482Z,99058.31
2023-04-22T13:59:57.605Z,99062.13
2023-04-22T14:02:24.617Z,99058.88
2023-04-22T14:04:51.963Z,99055.41
2023-04-22T14:07:18.928Z,99055.13
2023-04-22T14:09:45.878Z,99051.91
2023-04-22T14:12:13.313Z,99039.97
2023-04-22T14:14:40.277Z,99041.59
2023-04-22T14:17:08.171Z,99044.31
2023-04-22T14:19:38.706Z,99046.47
2023-04-22T14:22:06.517Z,99039.66
2023-04-22T14:24:33.638Z,99040.97
2023-04-22T14:27:03.457Z,99036.63
2023-04-22T14:29:30.942Z,99035.78
2023-04-22T14:31:58.416Z,99033.84
2023-04-22T14:34:26.904Z,99031.06
2023-04-22T14:36:54.201Z,99037.03
2023-04-22T14:39:21.368Z,99032.13
2023-04-22T14:41:48.937Z,99033.19
2023-04-22T14:44:16.529Z,99028.84
2023-04-22T14:46:43.697Z,99028.28
2023-04-22T14:49:10.743Z,99029.09
2023-04-22T14:51:37.744Z,99023.66
2023-04-22T14:54:05.175Z,99020.13
2023-04-22T14:56:32.120Z,99020.13
2023-04-22T14:58:59.041Z,99016.34
2023-04-22T15:01:26.048Z,99021.78
2023-04-22T15:03:53.325Z,99021.25
2023-04-22T15:06:20.531Z,99016.09
2023-04-22T15:08:47.570Z,99016.09
2023-04-22T15:11:14.470Z,99016.66
2023-04-22T15:13:41.453Z,99013.41
2023-04-22T15:16:08.463Z,99018.03
2023-04-22T15:18:35.717Z,99015.56
2023-04-22T15:21:03.320Z,99011.25
2023-04-22T15:23:30.350Z,99013.16
2023-04-22T15:25:57.352Z,99022.41
2023-04-22T15:28:24.469Z,99022.41
2023-04-22T15:30:51.479Z,99034.88
2023-04-22T15:33:18.461Z,99021.00
2023-04-22T15:35:47.512Z,99021.84
2023-04-22T15:38:14.441Z,99025.09
2023-04-22T15:40:41.406Z,99023.69
2023-04-22T15:43:08.471Z,99021.78
2023-04-22T15:45:35.735Z,99019.88
2023-04-22T15:48:03.043Z,99019.88
2023-04-22T15:50:29.991Z,99018.25
2023-04-22T15:52:56.982Z,99013.41
2023-04-22T15:55:24.037Z,99022.91
2023-04-22T15:57:51.017Z,99015.34
2023-04-22T16:00:18.222Z,99016.75
2023-04-22T16:02:46.395Z,99028.97
2023-04-22T16:05:14.342Z,99027.94
2023-04-22T16:07:41.377Z,99032.28
2023-04-22T16:10:09.423Z,99028.78
2023-04-22T16:12:39.240Z,99027.72
2023-04-22T16:15:07.347Z,99033.50
2023-04-22T16:17:34.527Z,99031.91
2023-04-22T16:20:01.839Z,99038.97
2023-04-22T16:22:28.810Z,99040.91
2023-04-22T16:24:55.737Z,99039.00
2023-04-22T16:27:22.749Z,99040.97
2023-04-22T16:29:49.727Z,99031.75
2023-04-22T16:32:16.652Z,99027.16
2023-04-22T16:34:43.591Z,99029.91
2023-04-22T16:37:10.575Z,99035.03
2023-04-22T16:39:37.775Z,99027.72
2023-04-22T16:42:04.856Z,99027.50
2023-04-22T16:44:31.795Z,99034.84
2023-04-22T16:46:58.716Z,99024.81
2023-04-22T16:49:25.685Z,99027.28
2023-04-22T16:51:52.845Z,99031.63
2023-04-22T16:54:20.266Z,99026.75
2023-04-22T16:56:47.271Z,99023.50
2023-04-22T16:59:14.626Z,99025.69
2023-04-22T17:01:41.984Z,99024.06
2023-04-22T17:04:09.355Z,99024.34
2023-04-22T17:06:39.203Z,99028.97
2023-04-22T17:09:07.406Z,99034.63
2023-04-22T17:11:34.354Z,99034.38
2023-04-22T17:14:05.186Z,99031.69
2023-04-22T17:16:32.330Z,99025.75
2023-04-22T17:18:59.383Z,99033.59
2023-04-22T17:21:27.077Z,99030.66
2023-04-22T17:23:54.417Z,99026.84
2023-04-22T17:26:21.795Z,99031.75
2023-04-22T17:28:48.753Z,99029.31
2023-04-22T17:31:15.769Z,99026.88
2023-04-22T17:33:42.807Z,99025.22
2023-04-22T17:36:09.796Z,99025.50
2023-04-22T17:38:36.753Z,99023.38
2023-04-22T17:41:04.182Z,99023.09
2023-04-22T17:43:31.250Z,99028.25
2023-04-22T17:45:58.302Z,99031.75
2023-04-22T17:48:25.490Z,99032.81
2023-04-22T17:50:52.599Z,99039.31
2023-04-22T17:53:19.606Z,99036.63
2023-04-22T17:55:46.515Z,99048.53
2023-04-22T17:58:13.460Z,99048.81
2023-04-22T18:00:40.504Z,99036.09
2023-04-22T18:03:07.633Z,99048.81
2023-04-22T18:05:34.805Z,99048.53
2023-04-22T18:08:02.811Z,99060.72
2023-04-22T18:10:30.766Z,99058.25
2023-04-22T18:12:57.776Z,99069.88
2023-04-22T18:15:24.779Z,99072.31
2023-04-22T18:17:51.887Z,99069.34
2023-04-22T18:20:19.666Z,99082.03
2023-04-22T18:22:49.135Z,99084.75
2023-04-22T18:25:16.383Z,99083.63
2023-04-22T18:27:43.968Z,99092.31
2023-04-22T18:30:11.216Z,99088.50
2023-04-22T18:32:38.311Z,99100.66
2023-04-22T18:35:06.358Z,99099.53
2023-04-22T18:37:34.573Z,99100.06
2023-04-22T18:40:02.437Z,99103.56
2023-04-22T18:42:30.044Z,99106.78
2023-04-22T18:44:57.024Z,99113.81
2023-04-22T18:47:24.015Z,99120.00
2023-04-22T18:49:51.171Z,99119.44
2023-04-22T18:52:18.362Z,99119.16
2023-04-22T18:54:45.454Z,99125.91
2023-04-22T18:57:12.660Z,99125.59
2023-04-22T18:59:39.719Z,99134.78
2023-04-22T19:02:06.930Z,99128.31
2023-04-22T19:04:34.023Z,99126.69
2023-04-22T19:07:01.087Z,99129.63
2023-04-22T19:09:29.023Z,99127.19
2023-04-22T19:11:56.195Z,99131.22
2023-04-22T19:14:23.189Z,99128.22
2023-04-22T19:16:50.332Z,99129.31
2023-04-22T19:19:17.799Z,99127.13
2023-04-22T19:21:44.997Z,99133.03
2023-04-22T19:24:14.184Z,99129.81
2023-04-22T19:26:41.286Z,99127.59
2023-04-22T19:29:08.647Z,99134.63
2023-04-22T19:31:35.692Z,99135.13
2023-04-22T19:34:03.034Z,99143.19
2023-04-22T19:36:30.044Z,99141.56
2023-04-22T19:38:56.975Z,99144.53
2023-04-22T19:41:24.042Z,99142.09
2023-04-22T19:43:51.151Z,99138.28
2023-04-22T19:46:18.227Z,99138.47
2023-04-22T19:48:45.649Z,99150.56
2023-04-22T19:51:13.440Z,99144.00
2023-04-22T19:53:41.420Z,99153.63
2023-04-22T19:56:11.884Z,99152.22
2023-04-22T19:58:39.546Z,99159.97
2023-04-22T20:01:06.744Z,99157.72
2023-04-22T20:03:34.215Z,99157.13
2023-04-22T20:06:01.918Z,99151.91
2023-04-22T20:08:29.345Z,99155.88
2023-04-22T20:10:58.129Z,99154.69
2023-04-22T20:13:25.917Z,99163.22
2023-04-22T20:15:53.371Z,99161.78
2023-04-22T20:18:20.508Z,99159.28
2023-04-22T20:20:48.543Z,99152.75
2023-04-22T20:23:17.408Z,99160.75
2023-04-22T20:25:45.135Z,99161.50
2023-04-22T20:28:12.569Z,99163.31
2023-04-22T20:30:40.167Z,99162.97
2023-04-22T20:33:07.569Z,99166.19
2023-04-22T20:35:35.773Z,99160.47
2023-04-22T20:38:03.443Z,99158.53
2023-04-22T20:40:30.579Z,99160.34
2023-04-22T20:42:58.728Z,99165.66
2023-04-22T20:45:27.132Z,99155.88
2023-04-22T20:47:54.211Z,99152.06
2023-04-22T20:50:21.382Z,99157.09
2023-04-22T20:52:48.926Z,99151.41
2023-04-22T20:55:16.947Z,99151.09
2023-04-22T20:57:44.222Z,99154.50
2023-04-22T21:00:11.887Z,99150.69
2023-04-22T21:02:40.488Z,99150.91
2023-04-22T21:05:09.958Z,99148.47
2023-04-22T21:07:43.250Z,99153.56
2023-04-22T21:10:10.932Z,99144.31
2023-04-22T21:12:38.295Z,99148.34
2023-04-22T21:15:06.369Z,99138.03
2023-04-22T21:17:35.146Z,99140.97
2023-04-22T21:20:05.350Z,99140.97
2023-04-22T21:22:32.600Z,99140.16
2023-04-22T21:25:00.211Z,99145.56
2023-04-22T21:27:27.574Z,99145.81
2023-04-22T21:29:55.254Z,99143.59
2023-04-22T21:32:22.215Z,99150.75
2023-04-22T21:34:49.188Z,99141.56
2023-04-22T21:37:16.218Z,99148.94
2023-04-22T21:39:43.186Z,99146.97
2023-04-22T21:42:10.465Z,99161.16
2023-04-22T21:44:38.293Z,99161.09
2023-04-22T21:47:06.265Z,99168.81
2023-04-22T21:49:33.229Z,99164.75
2023-04-22T21:52:00.290Z,99163.81
2023-04-22T21:54:27.258Z,99163.41
2023-04-22T21:56:54.222Z,99163.56
2023-04-22T21:59:21.243Z,99163.22
2023-04-22T22:01:48.226Z,99163.09
2023-04-22T22:04:16.330Z,99164.66
2023-04-22T22:06:45.295Z,99163.50
2023-04-22T22:09:13.659Z,99161.88
2023-04-22T22:11:40.625Z,99162.09
2023-04-22T22:14:07.638Z,99164.44
2023-04-22T22:16:34.854Z,99166.56
2023-04-22T22:19:04.369Z,99161.66
2023-04-22T22:21:32.675Z,99158.41
2023-04-22T22:23:59.635Z,99158.63
2023-04-22T22:26:27.131Z,99151.84
2023-04-22T22:28:54.258Z,99169.03
2023-04-22T22:31:21.492Z,99177.59
2023-04-22T22:33:48.564Z,99161.91
2023-04-22T22:36:16.129Z,99168.59
2023-04-22T22:38:43.141Z,99162.41
2023-04-22T22:41:10.111Z,99164.53
2023-04-22T22:43:37.098Z,99164.97
2023-04-22T22:46:04.173Z,99162.19
2023-04-22T22:48:31.517Z,99168.53
2023-04-22T22:50:58.611Z,99162.22
2023-04-22T22:53:25.589Z,99167.50
2023-04-22T22:55:52.555Z,99165.47
2023-04-22T22:58:19.476Z,99165.94
2023-04-22T23:00:46.446Z,99162.91
2023-04-22T23:03:13.763Z,99161.53
2023-04-22T23:05:41.052Z,99169.22
2023-04-22T23:08:08.023Z,99168.88
2023-04-22T23:10:34.958Z,99166.44
2023-04-22T23:13:02.091Z,99165.84
2023-04-22T23:15:29.294Z,99159.06
2023-04-22T23:17:56.377Z,99152.28
2023-04-22T23:20:24.274Z,99157.91
2023-04-22T23:22:51.789Z,99150.91
2023-04-22T23:25:19.069Z,99153.59
2023-04-22T23:27:46.521Z,99151.94
2023-04-22T23:30:13.972Z,99151.13
2023-04-22T23:32:42.594Z,99155.69
2023-04-22T23:35:12.531Z,99153.81
2023-04-22T23:37:45.371Z,99157.91
2023-04-22T23:40:13.175Z,99161.41
2023-04-22T23:42:40.268Z,99170.25
2023-04-22T23:45:08.114Z,99170.25
2023-04-22T23:47:35.223Z,99167.59
2023-04-22T23:50:03.299Z,99172.94
2023-04-22T23:52:30.368Z,99172.13
2023-04-22T23:54:58.053Z,99172.94
2023-04-22T23:57:25.296Z,99172.94
2023-04-22T23:59:52.613Z,99164.91
